Brokaw, Wisconsin
Current Conditions -  °F | °C
As of 8:54 PM on Wednesday 22 Oct 2014 (Local Time) from KAUW Reporting Station
Clear Clear  
Wind Chill: 43°   Ceiling: Unl
Heat Index: 43°   Visibility: 10mi
Dew Point: 35°   Wind: 3mph
Humidity: 74%   Direction: 130°SE
Pressure: 30.19"   Gusts: NA
Location:  45.03°N, 89.65°W
Report Text: KAUW 230154Z AUTO 13003KT 10SM CLR 06/02 A3019 RMK AO2 SLP240 T00610017
Loading
Personal Weather Stations






























Interactive Weather Map
Tropical Storm Tracking
New forecast layout! Learn more

10-Day Weather Forecast

Advertisements
Track Severe Weather on mobile